Dk Ione — 3ETX — position and weather

sailwx.info

Track history (hours):
 
Tides and Currents Weather Stations Pressure Air Temp Water Temp Dewpoint Dewpoint Depression Visibility Wind Speed Wind Dir Waves Ship Positions

Dk Ione

Last reported at 2017-Aug-13 22:56 UTC. Time now 2017-Aug-22 20:50 UTC.
Position N 09°39' W 079°58'.
Warning: this ship's position is 8 days out of date.

Length 196 m; draft 9.9 m.

Type: Cargo ship. MMSI: 353245000.

Date/timePositionNaut miles runAvg speedWind from/ knotsBaromVisibWave heightAir tempDewpointWater temp
2017-Aug-13 22:56N 09°39' W 079°58'712.5
2017-Aug-13 22:25N 09°33' W 079°56'512.4
2017-Aug-13 22:00N 09°28' W 079°55'612.1
2017-Aug-13 21:30N 09°22' W 079°55'4 8.4
2017-Aug-13 21:00N 09°18' W 079°55'1 2.6
2017-Aug-13 20:31N 09°17' W 079°55'0 0.3
2017-Aug-13 20:01N 09°16' W 079°55'0 0.4
2017-Aug-13 19:31N 09°16' W 079°55'1 1.1
2017-Aug-13 19:01N 09°16' W 079°55'1 1.7
2017-Aug-13 18:30N 09°15' W 079°55'0 0.0
2017-Aug-13 17:45N 09°15' W 079°55'0 0.1
2017-Aug-13 17:30N 09°15' W 079°55'0 0.1
2017-Aug-13 17:00N 09°15' W 079°55'0 0.1
2017-Aug-13 16:28N 09°15' W 079°55'1 1.6
2017-Aug-13 15:58N 09°14' W 079°55'2 4.7
2017-Aug-13 15:31N 09°12' W 079°54'3 4.6
2017-Aug-13 14:56N 09°11' W 079°52'3 7.1
2017-Aug-13 14:29N 09°09' W 079°49'14 6.7
2017-Aug-13 12:24N 09°01' W 079°37'0 1.1
2017-Aug-13 12:00N 09°01' W 079°37'1 0.4
2017-Aug-13 10:44N 09°01' W 079°37'1 2.0
2017-Aug-13 10:28N 09°00' W 079°36'  
Track history (hours):
 
Tides and Currents Weather Stations Pressure Air Temp Water Temp Dewpoint Dewpoint Depression Visibility Wind Speed Wind Dir Waves Ship Positions

Dk Ione

Last reported at 2017-Aug-13 22:56 UTC. Time now 2017-Aug-22 20:50 UTC.
Position N 09°39' W 079°58'.
Warning: this ship's position is 8 days out of date.

Length 196 m; draft 9.9 m.

Type: Cargo ship. MMSI: 353245000.

Date/timePositionNaut miles runAvg speedWind from/ knotsBaromVisibWave heightAir tempDewpointWater temp
2017-Aug-13 22:56N 09°39' W 079°58'712.5
2017-Aug-13 22:25N 09°33' W 079°56'512.4
2017-Aug-13 22:00N 09°28' W 079°55'612.1
2017-Aug-13 21:30N 09°22' W 079°55'4 8.4
2017-Aug-13 21:00N 09°18' W 079°55'1 2.6
2017-Aug-13 20:31N 09°17' W 079°55'0 0.3
2017-Aug-13 20:01N 09°16' W 079°55'0 0.4
2017-Aug-13 19:31N 09°16' W 079°55'1 1.1
2017-Aug-13 19:01N 09°16' W 079°55'1 1.7
2017-Aug-13 18:30N 09°15' W 079°55'0 0.0
2017-Aug-13 17:45N 09°15' W 079°55'0 0.1
2017-Aug-13 17:30N 09°15' W 079°55'0 0.1
2017-Aug-13 17:00N 09°15' W 079°55'0 0.1
2017-Aug-13 16:28N 09°15' W 079°55'1 1.6
2017-Aug-13 15:58N 09°14' W 079°55'2 4.7
2017-Aug-13 15:31N 09°12' W 079°54'3 4.6
2017-Aug-13 14:56N 09°11' W 079°52'3 7.1
2017-Aug-13 14:29N 09°09' W 079°49'14 6.7
2017-Aug-13 12:24N 09°01' W 079°37'0 1.1
2017-Aug-13 12:00N 09°01' W 079°37'1 0.4
2017-Aug-13 10:44N 09°01' W 079°37'1 2.0
2017-Aug-13 10:28N 09°00' W 079°36'  

Dump ship's entire track history